Time;durP1;ratioP1;P1;durP2;ratioP2;P2;SDS_P1;SDS_P2;PMS_P1;PMS_P2;Temp;Humidity;BMP_temperature;BMP_pressure;BME280_temperature;BME280_humidity;BME280_pressure;Samples;Min_cycle;Max_cycle;Signal;HPM_P1;HPM_P2
2021/12/11 00:01:09;;;;;;;;;;;;;;;;;;5012465;28;20025;-62
2021/12/11 00:03:39;;;;;;;0.95;0.50;;;;;;;;;;5011575;28;20270;-61
2021/12/11 00:06:13;;;;;;;1.23;0.50;;;;;;;;;;5011624;28;20061;-63
2021/12/11 00:08:39;;;;;;;1.67;0.50;;;;;;;;;;5009471;28;20034;-62
2021/12/11 00:11:07;;;;;;;1.15;0.38;;;;;;;;;;5012560;28;20541;-62
2021/12/11 00:13:38;;;;;;;1.92;0.43;;;;;;;;;;5012702;28;20336;-63
2021/12/11 00:16:05;;;;;;;0.63;0.30;;;;;;;;;;5013181;28;20030;-63
2021/12/11 00:18:32;;;;;;;0.38;0.30;;;;;;;;;;5012484;28;20021;-63
2021/12/11 00:21:00;;;;;;;0.50;0.45;;;;;;;;;;5012780;28;20105;-62
2021/12/11 00:23:33;;;;;;;1.23;0.55;;;;;;;;;;5012456;28;20026;-63
2021/12/11 00:25:59;;;;;;;0.85;0.30;;;;;;;;;;5012877;28;20183;-63
2021/12/11 00:28:25;;;;;;;1.30;0.70;;;;;;;;;;5011885;28;20048;-62
2021/12/11 00:30:51;;;;;;;1.35;0.50;;;;;;;;;;5013240;28;20026;-62
2021/12/11 00:33:22;;;;;;;0.73;0.30;;;;;;;;;;5012595;28;20104;-63
2021/12/11 00:35:50;;;;;;;1.00;0.43;;;;;;;;;;5012643;28;20034;-63
2021/12/11 00:38:18;;;;;;;0.95;0.43;;;;;;;;;;5012062;28;20076;-63
2021/12/11 00:40:46;;;;;;;0.43;0.40;;;;;;;;;;5013248;28;20119;-63
2021/12/11 00:43:17;;;;;;;0.75;0.40;;;;;;;;;;5012919;28;20105;-62
2021/12/11 00:45:45;;;;;;;1.80;0.60;;;;;;;;;;5011437;28;20033;-63
2021/12/11 00:48:13;;;;;;;0.60;0.30;;;;;;;;;;5012655;28;20125;-62
2021/12/11 00:50:41;;;;;;;0.68;0.30;;;;;;;;;;5011995;28;20021;-62
2021/12/11 00:53:16;;;;;;;0.80;0.40;;;;;;;;;;5012474;28;20108;-62
2021/12/11 00:55:46;;;;;;;1.45;0.30;;;;;;;;;;5012317;28;20053;-62
2021/12/11 00:58:21;;;;;;;0.22;0.22;;;;;;;;;;5012561;28;20028;-63
2021/12/11 01:00:50;;;;;;;0.47;0.30;;;;;;;;;;5013118;28;20040;-62
2021/12/11 01:03:18;;;;;;;0.80;0.45;;;;;;;;;;5012422;28;20056;-63
2021/12/11 01:05:47;;;;;;;0.63;0.38;;;;;;;;;;5012137;28;20120;-62
2021/12/11 01:08:39;;;;;;;0.50;0.30;;;;;;;;;;5010827;28;20424;-62
2021/12/11 01:11:13;;;;;;;0.85;0.30;;;;;;;;;;5008937;28;20121;-63
2021/12/11 01:13:44;;;;;;;0.60;0.40;;;;;;;;;;5011838;28;20022;-62
2021/12/11 01:16:13;;;;;;;1.53;0.30;;;;;;;;;;5012309;28;20057;-63
2021/12/11 01:18:41;;;;;;;0.88;0.50;;;;;;;;;;5011810;28;20261;-63
2021/12/11 01:26:30;;;;;;;0.88;0.60;;;;;;;;;;5011458;28;20137;-62
2021/12/11 01:28:56;;;;;;;0.77;0.60;;;;;;;;;;5011888;28;20041;-62
2021/12/11 01:31:23;;;;;;;0.32;0.25;;;;;;;;;;5011637;28;20494;-62
2021/12/11 01:33:50;;;;;;;0.50;0.40;;;;;;;;;;5012374;28;20026;-63
2021/12/11 01:36:16;;;;;;;2.28;0.82;;;;;;;;;;5011598;28;20471;-68
2021/12/11 01:38:42;;;;;;;0.50;0.30;;;;;;;;;;5012037;28;20356;-62
2021/12/11 01:41:12;;;;;;;0.50;0.28;;;;;;;;;;5012389;28;20030;-62
2021/12/11 01:43:41;;;;;;;0.82;0.32;;;;;;;;;;5011388;28;20026;-62
2021/12/11 01:46:07;;;;;;;0.40;0.30;;;;;;;;;;5011668;28;20495;-63
2021/12/11 01:48:35;;;;;;;0.38;0.38;;;;;;;;;;5011240;28;20054;-63
2021/12/11 01:51:28;;;;;;;0.50;0.25;;;;;;;;;;5011679;28;20084;-62
2021/12/11 01:53:58;;;;;;;0.70;0.30;;;;;;;;;;5009219;28;20038;-63
2021/12/11 01:56:26;;;;;;;0.35;0.30;;;;;;;;;;5011458;28;20058;-66
2021/12/11 01:59:02;;;;;;;0.45;0.22;;;;;;;;;;5015510;28;20026;-62
2021/12/11 02:01:35;;;;;;;0.85;0.55;;;;;;;;;;5014902;28;20030;-68
2021/12/11 02:04:01;;;;;;;0.32;0.30;;;;;;;;;;5015911;28;20033;-62
2021/12/11 02:06:31;;;;;;;0.30;0.30;;;;;;;;;;5007566;28;20037;-62
2021/12/11 02:08:58;;;;;;;0.30;0.30;;;;;;;;;;5015933;28;20022;-63
2021/12/11 02:11:26;;;;;;;0.70;0.40;;;;;;;;;;5015049;28;20114;-63
2021/12/11 02:13:58;;;;;;;0.38;0.38;;;;;;;;;;5015276;28;20033;-63
2021/12/11 02:16:30;;;;;;;0.20;0.20;;;;;;;;;;5014330;28;20053;-62
2021/12/11 02:18:58;;;;;;;0.47;0.28;;;;;;;;;;5015358;28;20438;-62
2021/12/11 02:21:25;;;;;;;0.20;0.20;;;;;;;;;;5014273;28;20022;-63
2021/12/11 02:23:56;;;;;;;0.30;0.30;;;;;;;;;;5015170;28;20022;-62
2021/12/11 02:26:23;;;;;;;0.52;0.30;;;;;;;;;;5014754;28;20034;-63
2021/12/11 02:28:51;;;;;;;0.68;0.40;;;;;;;;;;5015394;28;20101;-62
2021/12/11 02:31:26;;;;;;;0.20;0.20;;;;;;;;;;5015197;28;20018;-69
2021/12/11 02:33:58;;;;;;;0.35;0.30;;;;;;;;;;5015216;28;20072;-62
2021/12/11 02:36:27;;;;;;;0.20;0.20;;;;;;;;;;5014419;28;20030;-62
2021/12/11 02:38:58;;;;;;;0.52;0.22;;;;;;;;;;5014975;28;20109;-62
2021/12/11 02:41:49;;;;;;;0.47;0.20;;;;;;;;;;5014678;28;20041;-62
2021/12/11 02:44:33;;;;;;;0.40;0.20;;;;;;;;;;5014944;28;20061;-62
2021/12/11 02:47:29;;;;;;;0.43;0.25;;;;;;;;;;5015010;28;20037;-63
2021/12/11 02:49:57;;;;;;;0.63;0.30;;;;;;;;;;5001850;28;20026;-62
2021/12/11 02:52:38;;;;;;;0.20;0.20;;;;;;;;;;4994414;28;20497;-62
2021/12/11 02:55:10;;;;;;;1.13;0.32;;;;;;;;;;5003612;28;20105;-63
2021/12/11 02:57:36;;;;;;;;;;;;;;;;;;5014261;28;20038;-62
2021/12/11 03:00:08;;;;;;;0.25;0.20;;;;;;;;;;5015082;28;19916;-63
2021/12/11 03:02:35;;;;;;;0.30;0.20;;;;;;;;;;5014099;28;20032;-62
2021/12/11 03:05:09;;;;;;;0.20;0.20;;;;;;;;;;5014367;28;20133;-62
2021/12/11 03:07:38;;;;;;;0.35;0.22;;;;;;;;;;5013992;28;20438;-63
2021/12/11 03:10:06;;;;;;;0.10;0.10;;;;;;;;;;5013634;28;20033;-62
2021/12/11 03:12:32;;;;;;;0.20;0.20;;;;;;;;;;5013954;28;20421;-62
2021/12/11 03:14:58;;;;;;;0.20;0.20;;;;;;;;;;5014214;28;20026;-64
2021/12/11 03:17:27;;;;;;;0.20;0.20;;;;;;;;;;5013756;28;20021;-64
2021/12/11 03:19:53;;;;;;;0.32;0.30;;;;;;;;;;5014063;28;20025;-62
2021/12/11 03:22:22;;;;;;;0.43;0.30;;;;;;;;;;5013705;28;20033;-63
2021/12/11 03:24:49;;;;;;;0.30;0.30;;;;;;;;;;5014138;28;20033;-62
2021/12/11 03:27:15;;;;;;;0.30;0.30;;;;;;;;;;5014254;28;20390;-62
2021/12/11 03:29:42;;;;;;;0.30;0.28;;;;;;;;;;5013320;28;20399;-62
2021/12/11 03:32:09;;;;;;;0.50;0.38;;;;;;;;;;5014198;28;20024;-63
2021/12/11 03:34:36;;;;;;;0.43;0.40;;;;;;;;;;5013236;28;20057;-62
2021/12/11 03:37:04;;;;;;;0.47;0.30;;;;;;;;;;5014173;28;20041;-62
2021/12/11 03:39:32;;;;;;;0.20;0.20;;;;;;;;;;5013267;28;20101;-62
2021/12/11 03:41:59;;;;;;;0.28;0.28;;;;;;;;;;5014195;28;20435;-62
2021/12/11 03:44:32;;;;;;;0.10;0.10;;;;;;;;;;5012986;28;20401;-62
2021/12/11 03:46:58;;;;;;;0.22;0.22;;;;;;;;;;5013501;28;20037;-62
2021/12/11 03:49:24;;;;;;;0.35;0.30;;;;;;;;;;5013161;28;20033;-62
2021/12/11 03:51:51;;;;;;;0.30;0.30;;;;;;;;;;5013644;28;20226;-62
2021/12/11 03:54:19;;;;;;;0.20;0.20;;;;;;;;;;5013465;28;20371;-62
2021/12/11 03:56:46;;;;;;;0.47;0.20;;;;;;;;;;5012422;28;20499;-62
2021/12/11 03:59:12;;;;;;;0.20;0.20;;;;;;;;;;5013637;28;20033;-62
2021/12/11 04:01:43;;;;;;;0.25;0.20;;;;;;;;;;5013063;28;20034;-62
2021/12/11 04:04:15;;;;;;;0.20;0.20;;;;;;;;;;5013154;28;20026;-63
2021/12/11 04:06:41;;;;;;;0.20;0.20;;;;;;;;;;5012799;28;20073;-63
2021/12/11 04:09:09;;;;;;;0.20;0.20;;;;;;;;;;5013215;28;20033;-62
2021/12/11 04:11:35;;;;;;;0.20;0.20;;;;;;;;;;5012727;28;20048;-62
2021/12/11 04:14:07;;;;;;;0.35;0.35;;;;;;;;;;5013044;28;20030;-62
2021/12/11 04:16:33;;;;;;;0.60;0.35;;;;;;;;;;5012836;28;20037;-62
2021/12/11 04:18:59;;;;;;;0.20;0.20;;;;;;;;;;5013220;28;20025;-62
2021/12/11 04:21:25;;;;;;;0.40;0.20;;;;;;;;;;5011480;28;20026;-64
2021/12/11 04:23:51;;;;;;;0.20;0.15;;;;;;;;;;5012843;28;20034;-62
2021/12/11 04:26:18;;;;;;;0.10;0.10;;;;;;;;;;5013228;28;20061;-62
2021/12/11 04:28:48;;;;;;;0.10;0.10;;;;;;;;;;5012491;28;20025;-62
2021/12/11 04:31:17;;;;;;;0.25;0.20;;;;;;;;;;5012942;28;20125;-62
2021/12/11 04:33:45;;;;;;;0.28;0.28;;;;;;;;;;5012357;28;20062;-62
2021/12/11 04:36:13;;;;;;;0.57;0.20;;;;;;;;;;5012794;28;20038;-62
2021/12/11 04:38:40;;;;;;;0.55;0.30;;;;;;;;;;5012401;28;20025;-62
2021/12/11 04:41:08;;;;;;;0.15;0.15;;;;;;;;;;5012846;28;20407;-62
2021/12/11 04:43:35;;;;;;;0.22;0.20;;;;;;;;;;5012266;28;20349;-62
2021/12/11 04:46:04;;;;;;;0.17;0.15;;;;;;;;;;5012445;28;20061;-62
2021/12/11 04:49:56;;;;;;;0.32;0.20;;;;;;;;;;5012312;28;20060;-62
2021/12/11 04:51:50;;;;;;;0.20;0.20;;;;;;;;;;5001581;28;20061;-63
2021/12/11 04:55:30;;;;;;;0.20;0.20;;;;;;;;;;5012971;28;20026;-62
2021/12/11 05:07:59;;;;;;;0.68;0.55;;;;;;;;;;5011946;28;20065;-62
2021/12/11 05:10:51;;;;;;;0.35;0.20;;;;;;;;;;5011925;28;20033;-63
2021/12/11 05:13:17;;;;;;;;;;;;;;;;;;5013097;28;20040;-62
2021/12/11 05:15:46;;;;;;;0.75;0.30;;;;;;;;;;5011633;28;20350;-62
2021/12/11 05:18:14;;;;;;;0.20;0.20;;;;;;;;;;5012367;28;20030;-62
2021/12/11 05:20:41;;;;;;;0.20;0.20;;;;;;;;;;5011284;28;20060;-62
2021/12/11 05:23:07;;;;;;;0.20;0.20;;;;;;;;;;5012215;28;20088;-62
2021/12/11 05:25:33;;;;;;;0.10;0.10;;;;;;;;;;5011515;28;20471;-62
2021/12/11 05:27:59;;;;;;;0.10;0.10;;;;;;;;;;5010722;28;20037;-62
2021/12/11 05:30:29;;;;;;;1.85;0.50;;;;;;;;;;5011646;28;20059;-63
2021/12/11 05:32:58;;;;;;;0.20;0.20;;;;;;;;;;5014974;28;20030;-63
2021/12/11 05:35:24;;;;;;;0.20;0.20;;;;;;;;;;5015801;28;20044;-68
2021/12/11 05:37:50;;;;;;;0.20;0.20;;;;;;;;;;5016305;28;20037;-62
2021/12/11 05:40:18;;;;;;;0.10;0.10;;;;;;;;;;5015860;28;20022;-62
2021/12/11 05:42:44;;;;;;;0.30;0.30;;;;;;;;;;5015643;28;20033;-63
2021/12/11 05:45:10;;;;;;;0.10;0.10;;;;;;;;;;5016043;28;20140;-62
2021/12/11 05:47:36;;;;;;;0.25;0.20;;;;;;;;;;5015576;28;20021;-62
2021/12/11 05:50:04;;;;;;;0.20;0.20;;;;;;;;;;5015475;28;20030;-62
2021/12/11 05:52:30;;;;;;;0.38;0.30;;;;;;;;;;5015085;28;20029;-62
2021/12/11 05:54:56;;;;;;;0.20;0.20;;;;;;;;;;5015875;28;20026;-63
2021/12/11 05:57:23;;;;;;;0.25;0.25;;;;;;;;;;5016040;28;20052;-62
2021/12/11 05:59:49;;;;;;;0.22;0.20;;;;;;;;;;5014914;28;20092;-62
2021/12/11 06:02:18;;;;;;;0.20;0.20;;;;;;;;;;5014673;28;20026;-62
2021/12/11 06:04:46;;;;;;;0.30;0.30;;;;;;;;;;5014653;28;20535;-62
2021/12/11 06:07:13;;;;;;;0.30;0.28;;;;;;;;;;5015693;28;20034;-62
2021/12/11 06:09:40;;;;;;;0.30;0.20;;;;;;;;;;5014662;28;20022;-62
2021/12/11 06:12:09;;;;;;;0.30;0.20;;;;;;;;;;5015833;28;20341;-62
2021/12/11 06:14:36;;;;;;;0.20;0.20;;;;;;;;;;5014755;28;20057;-63
2021/12/11 06:17:05;;;;;;;0.20;0.20;;;;;;;;;;5015430;28;20058;-63
2021/12/11 06:19:31;;;;;;;0.20;0.20;;;;;;;;;;5015081;28;20403;-63
2021/12/11 06:21:58;;;;;;;0.40;0.40;;;;;;;;;;5014590;28;20026;-62
2021/12/11 06:24:24;;;;;;;0.20;0.20;;;;;;;;;;5015359;28;20067;-63
2021/12/11 06:26:51;;;;;;;0.20;0.20;;;;;;;;;;5014074;28;20460;-63
2021/12/11 06:29:17;;;;;;;0.28;0.28;;;;;;;;;;5015478;28;20165;-64
2021/12/11 06:31:44;;;;;;;0.20;0.20;;;;;;;;;;5013815;28;20026;-62
2021/12/11 06:34:11;;;;;;;0.30;0.30;;;;;;;;;;5015008;28;20026;-63
2021/12/11 06:36:37;;;;;;;0.20;0.20;;;;;;;;;;5014072;28;20034;-62
2021/12/11 06:39:06;;;;;;;0.30;0.30;;;;;;;;;;5013495;28;20519;-62
2021/12/11 06:41:35;;;;;;;0.52;0.52;;;;;;;;;;5012823;28;20022;-63
2021/12/11 06:44:01;;;;;;;0.20;0.20;;;;;;;;;;5011427;28;20418;-64
2021/12/11 06:46:27;;;;;;;0.80;0.40;;;;;;;;;;5012576;28;20112;-62
2021/12/11 06:48:53;;;;;;;0.43;0.30;;;;;;;;;;5013675;28;20106;-63
2021/12/11 06:51:20;;;;;;;0.20;0.20;;;;;;;;;;5012803;28;20466;-63
2021/12/11 06:53:48;;;;;;;0.17;0.17;;;;;;;;;;5012736;28;20341;-62
2021/12/11 06:56:15;;;;;;;0.20;0.20;;;;;;;;;;5013132;28;20038;-63
2021/12/11 06:58:41;;;;;;;0.25;0.22;;;;;;;;;;5012549;28;20137;-63
2021/12/11 07:01:09;;;;;;;0.20;0.20;;;;;;;;;;5013275;28;20383;-62
2021/12/11 07:03:35;;;;;;;0.57;0.30;;;;;;;;;;5012655;28;20029;-63
2021/12/11 07:06:02;;;;;;;1.45;0.32;;;;;;;;;;5004397;28;20035;-62
2021/12/11 07:08:29;;;;;;;0.20;0.20;;;;;;;;;;5007057;28;20052;-63
2021/12/11 07:10:55;;;;;;;0.43;0.35;;;;;;;;;;5005052;28;20080;-62
2021/12/11 07:13:22;;;;;;;0.40;0.25;;;;;;;;;;5007077;28;20459;-63
2021/12/11 07:15:48;;;;;;;0.25;0.25;;;;;;;;;;5002922;28;20390;-62
2021/12/11 07:18:14;;;;;;;0.25;0.25;;;;;;;;;;5003748;28;20471;-62
2021/12/11 07:20:40;;;;;;;0.38;0.38;;;;;;;;;;5005900;28;20784;-65
2021/12/11 07:23:06;;;;;;;0.38;0.32;;;;;;;;;;5003658;28;20370;-62
2021/12/11 07:25:37;;;;;;;0.30;0.30;;;;;;;;;;5002621;28;20061;-63
2021/12/11 07:28:04;;;;;;;0.38;0.38;;;;;;;;;;5002088;28;20484;-63
2021/12/11 07:30:32;;;;;;;0.30;0.30;;;;;;;;;;5003609;28;20117;-63
2021/12/11 07:33:00;;;;;;;0.30;0.30;;;;;;;;;;5004532;28;20022;-62
2021/12/11 07:35:26;;;;;;;1.10;0.40;;;;;;;;;;5002710;28;20019;-62
2021/12/11 07:37:52;;;;;;;0.47;0.40;;;;;;;;;;5002430;28;20022;-63
2021/12/11 07:40:20;;;;;;;0.28;0.22;;;;;;;;;;5002600;28;20057;-63
2021/12/11 07:42:46;;;;;;;0.50;0.30;;;;;;;;;;5001774;28;20537;-63
2021/12/11 07:45:12;;;;;;;0.30;0.30;;;;;;;;;;5008939;28;20100;-63
2021/12/11 07:47:38;;;;;;;0.30;0.25;;;;;;;;;;5006016;28;20048;-62
2021/12/11 07:50:04;;;;;;;0.40;0.40;;;;;;;;;;5006747;28;20482;-63
2021/12/11 07:52:30;;;;;;;0.30;0.30;;;;;;;;;;5004248;28;20037;-63
2021/12/11 07:54:56;;;;;;;0.50;0.40;;;;;;;;;;5005243;28;20038;-62
2021/12/11 07:57:22;;;;;;;0.55;0.30;;;;;;;;;;5003346;28;20042;-62
2021/12/11 07:59:49;;;;;;;0.38;0.30;;;;;;;;;;5005699;28;20025;-62
2021/12/11 08:02:15;;;;;;;0.35;0.35;;;;;;;;;;5001644;28;20022;-62
2021/12/11 08:04:41;;;;;;;2.15;0.40;;;;;;;;;;5006547;28;20038;-63
2021/12/11 08:07:07;;;;;;;0.50;0.38;;;;;;;;;;5006574;28;20045;-62
2021/12/11 08:09:34;;;;;;;0.47;0.40;;;;;;;;;;5009582;28;20030;-62
2021/12/11 08:12:00;;;;;;;0.88;0.40;;;;;;;;;;5007695;28;20048;-62
2021/12/11 08:14:26;;;;;;;1.00;0.40;;;;;;;;;;5004459;28;20029;-60
2021/12/11 08:16:56;;;;;;;2.83;0.68;;;;;;;;;;5003137;28;20026;-61
2021/12/11 08:19:23;;;;;;;0.70;0.47;;;;;;;;;;5003736;28;20068;-61
2021/12/11 08:21:52;;;;;;;1.95;0.60;;;;;;;;;;5004673;28;20018;-63
2021/12/11 08:24:19;;;;;;;0.95;0.55;;;;;;;;;;5001333;28;20054;-61
2021/12/11 08:26:45;;;;;;;0.77;0.40;;;;;;;;;;5002211;28;20049;-61
2021/12/11 08:29:12;;;;;;;1.85;0.45;;;;;;;;;;5002422;28;20018;-61
2021/12/11 08:31:40;;;;;;;1.92;0.50;;;;;;;;;;5000963;28;20022;-61
2021/12/11 08:34:06;;;;;;;0.65;0.47;;;;;;;;;;5000079;28;20049;-64
2021/12/11 08:36:32;;;;;;;0.68;0.40;;;;;;;;;;5001949;28;20125;-62
2021/12/11 08:38:59;;;;;;;0.82;0.50;;;;;;;;;;5001328;28;20412;-64
2021/12/11 08:41:27;;;;;;;1.23;0.80;;;;;;;;;;5002762;28;20022;-64
2021/12/11 08:43:59;;;;;;;4.10;0.65;;;;;;;;;;5002510;28;20042;-63
2021/12/11 08:46:30;;;;;;;3.25;0.73;;;;;;;;;;5004549;28;20391;-63
2021/12/11 08:49:00;;;;;;;2.25;0.60;;;;;;;;;;5001089;28;20033;-62
2021/12/11 08:51:32;;;;;;;4.93;1.15;;;;;;;;;;5005153;28;20074;-64
2021/12/11 08:53:58;;;;;;;1.00;0.50;;;;;;;;;;5006493;28;20018;-63
2021/12/11 08:56:25;;;;;;;1.05;0.50;;;;;;;;;;5008302;28;20097;-61
2021/12/11 08:58:51;;;;;;;2.00;0.63;;;;;;;;;;5002310;28;20174;-63
2021/12/11 09:01:24;;;;;;;1.83;0.60;;;;;;;;;;5008908;28;20117;-62
2021/12/11 09:03:56;;;;;;;2.33;1.08;;;;;;;;;;5015648;28;20178;-65
2021/12/11 09:06:22;;;;;;;2.45;0.80;;;;;;;;;;5008321;28;20030;-67
2021/12/11 09:09:18;;;;;;;1.60;0.50;;;;;;;;;;5009224;28;20585;-66
2021/12/11 09:11:49;;;;;;;0.90;0.50;;;;;;;;;;4996621;28;20039;-64
2021/12/11 09:14:21;;;;;;;1.70;0.73;;;;;;;;;;5011306;28;20054;-63
2021/12/11 09:16:49;;;;;;;1.42;0.38;;;;;;;;;;5015633;28;20030;-64
2021/12/11 09:19:31;;;;;;;4.00;0.70;;;;;;;;;;5011140;28;20371;-67
2021/12/11 09:22:06;;;;;;;3.03;0.80;;;;;;;;;;5009647;28;20032;-65
2021/12/11 09:24:36;;;;;;;5.90;1.40;;;;;;;;;;5010825;28;20026;-72
2021/12/11 09:27:12;;;;;;;2.55;1.02;;;;;;;;;;5011608;28;20092;-65
2021/12/11 09:29:38;;;;;;;2.60;0.95;;;;;;;;;;5010525;28;20069;-62
2021/12/11 09:32:10;;;;;;;8.50;1.58;;;;;;;;;;5011810;28;20072;-63
2021/12/11 09:34:42;;;;;;;1.75;0.82;;;;;;;;;;5009618;28;20108;-65
2021/12/11 09:37:08;;;;;;;3.90;0.70;;;;;;;;;;5019820;28;20163;-69
2021/12/11 09:39:34;;;;;;;7.32;1.40;;;;;;;;;;5010888;28;20375;-68
2021/12/11 09:42:00;;;;;;;2.10;1.25;;;;;;;;;;5010723;28;20087;-69
2021/12/11 09:44:34;;;;;;;1.58;0.68;;;;;;;;;;5011404;28;20030;-69
2021/12/11 09:47:03;;;;;;;1.35;0.70;;;;;;;;;;5011425;28;20117;-66
2021/12/11 09:49:30;;;;;;;5.13;0.80;;;;;;;;;;5011145;28;20460;-71
2021/12/11 09:52:04;;;;;;;1.92;0.88;;;;;;;;;;5005106;28;20038;-70
2021/12/11 09:54:35;;;;;;;4.35;0.70;;;;;;;;;;5011005;28;20029;-66
2021/12/11 09:57:04;;;;;;;3.80;0.88;;;;;;;;;;5011057;28;20049;-65
2021/12/11 09:59:31;;;;;;;5.88;0.93;;;;;;;;;;5010886;28;20043;-67
2021/12/11 10:02:02;;;;;;;2.13;0.82;;;;;;;;;;5011264;28;20026;-64
2021/12/11 10:04:35;;;;;;;2.50;0.73;;;;;;;;;;5011162;28;20097;-64
2021/12/11 10:09:36;;;;;;;1.48;0.77;;;;;;;;;;4990400;28;20041;-63
2021/12/11 10:12:06;;;;;;;2.30;0.77;;;;;;;;;;5003105;28;20041;-63
2021/12/11 10:14:55;;;;;;;2.97;1.00;;;;;;;;;;5010628;28;20018;-65
2021/12/11 10:17:45;;;;;;;2.85;0.90;;;;;;;;;;5005138;28;20450;-63
2021/12/11 10:20:20;;;;;;;2.65;0.70;;;;;;;;;;5003064;28;20038;-63
2021/12/11 10:22:47;;;;;;;0.95;0.63;;;;;;;;;;5013987;28;20029;-63
2021/12/11 10:25:16;;;;;;;4.45;0.93;;;;;;;;;;5014965;28;20061;-63
2021/12/11 10:27:42;;;;;;;1.63;0.95;;;;;;;;;;5013943;28;20121;-63
2021/12/11 10:30:09;;;;;;;3.15;0.93;;;;;;;;;;5014730;28;20104;-62
2021/12/11 10:32:35;;;;;;;2.55;0.90;;;;;;;;;;5013835;28;20374;-63
2021/12/11 10:35:05;;;;;;;4.53;1.20;;;;;;;;;;5014389;28;20672;-62
2021/12/11 10:37:35;;;;;;;2.67;1.13;;;;;;;;;;5014629;28;20025;-70
2021/12/11 10:40:06;;;;;;;2.83;0.80;;;;;;;;;;5014668;28;20022;-64
2021/12/11 10:42:32;;;;;;;2.40;0.93;;;;;;;;;;5013868;28;20053;-72
2021/12/11 10:44:59;;;;;;;4.32;1.20;;;;;;;;;;5014214;28;20032;-65
2021/12/11 10:47:33;;;;;;;2.33;0.90;;;;;;;;;;5014681;28;20382;-65
2021/12/11 10:49:59;;;;;;;2.58;0.93;;;;;;;;;;5013580;28;20034;-71
2021/12/11 10:52:28;;;;;;;6.20;1.10;;;;;;;;;;5009639;28;20030;-64
2021/12/11 10:54:56;;;;;;;2.10;1.00;;;;;;;;;;4993937;28;20031;-67
2021/12/11 10:57:22;;;;;;;4.35;1.33;;;;;;;;;;4995276;28;20411;-65
2021/12/11 10:59:50;;;;;;;3.20;1.17;;;;;;;;;;4994569;28;20105;-65
2021/12/11 11:02:23;;;;;;;11.05;1.88;;;;;;;;;;5008759;28;20022;-71
2021/12/11 11:04:51;;;;;;;3.53;1.10;;;;;;;;;;5012992;28;20013;-74
2021/12/11 11:07:17;;;;;;;6.38;1.55;;;;;;;;;;5014185;28;20034;-73
2021/12/11 11:09:44;;;;;;;1.88;1.00;;;;;;;;;;5013631;28;20026;-72
2021/12/11 11:12:14;;;;;;;2.03;1.02;;;;;;;;;;5014153;28;20033;-69
2021/12/11 11:14:41;;;;;;;2.15;1.08;;;;;;;;;;5013464;28;20038;-64
2021/12/11 11:17:11;;;;;;;7.35;1.77;;;;;;;;;;5014577;28;20471;-62
2021/12/11 11:19:40;;;;;;;2.05;1.20;;;;;;;;;;5013970;28;20030;-64
2021/12/11 11:22:08;;;;;;;4.30;1.42;;;;;;;;;;5014013;28;20419;-60
2021/12/11 11:24:38;;;;;;;4.90;1.20;;;;;;;;;;5013535;28;20058;-66
2021/12/11 11:27:05;;;;;;;4.43;1.40;;;;;;;;;;5013601;28;20061;-67
2021/12/11 11:29:31;;;;;;;3.75;1.20;;;;;;;;;;5013353;28;20022;-69
2021/12/11 11:32:00;;;;;;;3.58;1.30;;;;;;;;;;5013571;28;20026;-66
2021/12/11 11:34:27;;;;;;;6.88;2.20;;;;;;;;;;5014148;28;20076;-66
2021/12/11 11:36:55;;;;;;;2.88;1.13;;;;;;;;;;5013568;28;20064;-62
2021/12/11 11:39:22;;;;;;;3.50;0.98;;;;;;;;;;5013898;28;20029;-68
2021/12/11 11:41:53;;;;;;;4.32;0.80;;;;;;;;;;5013444;28;20352;-63
2021/12/11 11:44:21;;;;;;;2.37;1.27;;;;;;;;;;5013624;28;20102;-70
2021/12/11 11:46:47;;;;;;;2.78;1.02;;;;;;;;;;5012937;28;20029;-67
2021/12/11 11:49:14;;;;;;;3.92;1.63;;;;;;;;;;5013926;28;20026;-63
2021/12/11 11:51:51;;;;;;;3.03;1.25;;;;;;;;;;5012646;28;20368;-59
2021/12/11 11:54:17;;;;;;;2.67;0.93;;;;;;;;;;5012518;28;20057;-65
2021/12/11 11:56:46;;;;;;;2.65;0.90;;;;;;;;;;5011994;28;20069;-66
2021/12/11 11:59:12;;;;;;;5.30;1.73;;;;;;;;;;5013639;28;20018;-64
2021/12/11 12:01:41;;;;;;;2.22;1.23;;;;;;;;;;5012990;28;20018;-68
2021/12/11 12:04:11;;;;;;;2.45;1.20;;;;;;;;;;5013525;28;20030;-64
2021/12/11 12:06:39;;;;;;;5.40;1.33;;;;;;;;;;5013012;28;20401;-59
2021/12/11 12:09:08;;;;;;;1.83;1.05;;;;;;;;;;5013070;28;20088;-61
2021/12/11 12:11:36;;;;;;;3.10;1.05;;;;;;;;;;5013391;28;20024;-65
2021/12/11 12:14:04;;;;;;;2.22;1.25;;;;;;;;;;5013120;28;20054;-64
2021/12/11 12:16:31;;;;;;;3.20;1.20;;;;;;;;;;5013078;28;20032;-61
2021/12/11 12:18:57;;;;;;;3.30;1.30;;;;;;;;;;5012517;28;20018;-61
2021/12/11 12:21:23;;;;;;;2.65;1.25;;;;;;;;;;5012440;28;20022;-62
2021/12/11 12:23:49;;;;;;;2.40;0.95;;;;;;;;;;5012711;28;20033;-61
2021/12/11 12:26:18;;;;;;;2.95;1.30;;;;;;;;;;5008777;28;20030;-61
2021/12/11 12:28:44;;;;;;;2.55;1.02;;;;;;;;;;5008213;28;20036;-61
2021/12/11 12:31:13;;;;;;;4.93;1.15;;;;;;;;;;5013018;28;20021;-62
2021/12/11 12:33:40;;;;;;;6.18;1.35;;;;;;;;;;5012642;28;20044;-60
2021/12/11 12:36:06;;;;;;;1.88;1.02;;;;;;;;;;5012951;28;20026;-62
2021/12/11 12:38:33;;;;;;;4.68;1.25;;;;;;;;;;5012841;28;20033;-61
2021/12/11 12:41:01;;;;;;;3.15;1.00;;;;;;;;;;5011998;28;20049;-63
2021/12/11 12:43:55;;;;;;;3.03;1.02;;;;;;;;;;5012410;28;20044;-62
2021/12/11 12:46:24;;;;;;;2.20;0.93;;;;;;;;;;5012139;28;20113;-59
2021/12/11 12:48:51;;;;;;;6.68;1.40;;;;;;;;;;5012351;28;20026;-60
2021/12/11 12:51:17;;;;;;;2.80;1.17;;;;;;;;;;5011947;28;20029;-62
2021/12/11 12:53:44;;;;;;;5.35;1.13;;;;;;;;;;5011811;28;20022;-61
2021/12/11 12:56:13;;;;;;;3.40;1.02;;;;;;;;;;5010795;28;20053;-62
2021/12/11 12:58:46;;;;;;;3.30;1.55;;;;;;;;;;5010390;28;20037;-61
2021/12/11 13:01:13;;;;;;;1.90;0.98;;;;;;;;;;5012575;28;20069;-60
2021/12/11 13:03:41;;;;;;;22.17;9.50;;;;;;;;;;5009255;28;20101;-59
2021/12/11 13:06:12;;;;;;;19.10;10.00;;;;;;;;;;5010092;28;20038;-61
2021/12/11 13:08:43;;;;;;;27.02;12.55;;;;;;;;;;5012007;28;20105;-61
2021/12/11 13:11:16;;;;;;;24.70;11.57;;;;;;;;;;5012985;28;20022;-59
2021/12/11 13:13:42;;;;;;;16.85;9.38;;;;;;;;;;5011743;28;20498;-63
2021/12/11 13:16:14;;;;;;;19.98;10.98;;;;;;;;;;5012436;28;20121;-61
2021/12/11 13:18:44;;;;;;;24.70;10.35;;;;;;;;;;5011550;28;20092;-64
2021/12/11 13:21:15;;;;;;;21.05;10.38;;;;;;;;;;5012497;28;20030;-63
2021/12/11 13:23:43;;;;;;;19.15;9.95;;;;;;;;;;5011778;28;20447;-62
2021/12/11 13:26:11;;;;;;;18.42;9.18;;;;;;;;;;5012219;28;20486;-62
2021/12/11 13:28:42;;;;;;;21.70;10.32;;;;;;;;;;5012302;28;20026;-60
2021/12/11 13:31:13;;;;;;;15.73;9.10;;;;;;;;;;5007789;28;20057;-60
2021/12/11 13:33:39;;;;;;;19.85;10.00;;;;;;;;;;4996863;28;20471;-60
2021/12/11 13:36:06;;;;;;;15.77;8.65;;;;;;;;;;5012384;28;20080;-64
2021/12/11 13:38:33;;;;;;;16.80;8.23;;;;;;;;;;5012241;28;20018;-62
2021/12/11 13:41:02;;;;;;;20.85;8.88;;;;;;;;;;5011803;28;20025;-61
2021/12/11 13:43:29;;;;;;;15.80;8.98;;;;;;;;;;5011899;28;20022;-61
2021/12/11 13:45:56;;;;;;;14.35;7.47;;;;;;;;;;5011423;28;20379;-60
2021/12/11 13:48:22;;;;;;;18.73;9.15;;;;;;;;;;5012198;28;20022;-62
2021/12/11 13:50:57;;;;;;;16.80;8.15;;;;;;;;;;5011857;28;20029;-61
2021/12/11 13:53:24;;;;;;;16.27;7.45;;;;;;;;;;5013568;28;20063;-60
2021/12/11 13:55:51;;;;;;;15.23;7.63;;;;;;;;;;5012057;28;20523;-63
2021/12/11 13:58:18;;;;;;;13.70;7.57;;;;;;;;;;5015184;28;20109;-62
2021/12/11 14:00:46;;;;;;;19.23;7.00;;;;;;;;;;5013970;28;20022;-63
2021/12/11 14:03:13;;;;;;;10.48;6.13;;;;;;;;;;5015668;28;20025;-63
2021/12/11 14:05:40;;;;;;;13.93;7.10;;;;;;;;;;5015699;28;20037;-63
2021/12/11 14:08:09;;;;;;;14.73;7.88;;;;;;;;;;5015329;28;20026;-63
2021/12/11 14:10:36;;;;;;;13.63;6.35;;;;;;;;;;5014890;28;20026;-61
2021/12/11 14:13:03;;;;;;;13.32;6.43;;;;;;;;;;5014682;28;20104;-63
2021/12/11 14:15:30;;;;;;;13.73;6.53;;;;;;;;;;5007886;28;20556;-62
2021/12/11 14:17:56;;;;;;;12.27;6.47;;;;;;;;;;5016119;28;20034;-64
2021/12/11 14:20:24;;;;;;;12.18;6.43;;;;;;;;;;5015611;28;20030;-62
2021/12/11 14:22:50;;;;;;;12.88;6.38;;;;;;;;;;5014444;28;20029;-61
2021/12/11 14:25:18;;;;;;;16.95;6.25;;;;;;;;;;5015139;28;20061;-65
2021/12/11 14:27:44;;;;;;;10.75;5.30;;;;;;;;;;5014008;28;20034;-64
2021/12/11 14:30:12;;;;;;;13.27;5.90;;;;;;;;;;5014970;28;20381;-63
2021/12/11 14:32:42;;;;;;;9.05;5.53;;;;;;;;;;5014789;28;20083;-64
2021/12/11 14:35:09;;;;;;;11.20;6.20;;;;;;;;;;5014786;28;20105;-64
2021/12/11 14:37:35;;;;;;;9.98;5.15;;;;;;;;;;4995626;28;20034;-65
2021/12/11 14:40:03;;;;;;;10.32;5.78;;;;;;;;;;5010639;28;20045;-66
2021/12/11 14:42:30;;;;;;;10.05;4.68;;;;;;;;;;5015039;28;20433;-63
2021/12/11 14:44:58;;;;;;;9.90;5.15;;;;;;;;;;5013702;28;20069;-61
2021/12/11 14:47:25;;;;;;;9.82;5.30;;;;;;;;;;5014748;28;20479;-62
2021/12/11 14:49:52;;;;;;;7.13;4.05;;;;;;;;;;5014183;28;20468;-62
2021/12/11 14:52:22;;;;;;;8.75;5.28;;;;;;;;;;5014407;28;20097;-63
2021/12/11 14:54:51;;;;;;;8.48;4.82;;;;;;;;;;5009260;28;20475;-63
2021/12/11 14:57:19;;;;;;;9.60;4.55;;;;;;;;;;5014172;28;20049;-62
2021/12/11 14:59:48;;;;;;;9.75;4.38;;;;;;;;;;5013809;28;20050;-61
2021/12/11 15:02:16;;;;;;;10.82;4.53;;;;;;;;;;5014686;28;20030;-61
2021/12/11 15:04:45;;;;;;;8.10;4.15;;;;;;;;;;5012431;28;20108;-62
2021/12/11 15:07:12;;;;;;;9.13;4.35;;;;;;;;;;5014685;28;20030;-60
2021/12/11 15:09:38;;;;;;;10.05;4.40;;;;;;;;;;5014622;28;20109;-61
2021/12/11 15:12:05;;;;;;;7.15;4.22;;;;;;;;;;5013555;28;20022;-60